Thunder radar more information blitzortung!


Radar de pluja more information rain snow radar


Visita la nostra xarxa de llocs de meteo:

Template documentation
and downloads

And another site



No particular awareness of the weather is required.    There are no Weather-warnings

Pagina Historial Weather Underground text

Diari Resum Novembre 27, 2017 Unitats:  Mètric    Imperial   Tant
« Previous Dia
SegĂźent Dia »
Diari Setmana Mensual Anual Personalitzada
  Maxima: Minima: Media:
Temperatura: -17.8 °C -16.7 °C -13.4 °C
Punt de rosada: -17.8 °C -20.5 °C -18.3 °C
Humitat: Humidity % 48 % 54 %
Wind Speed: 0 km/h 0 km/h 4.2 km/h
RĂ fegues de vent: 0 km/h - -
Vent:- - South
Pression baro: 0 hPa 34496.6 hPa -
Precipitacions: 0 mm    
Historical Graphs
 
 
Dades de taula per Novembre 27, 2017
Temps Temperatura Punt de rosada Pression baro Vent Wind Speed RĂ fegues de vent Humitat Rainfall Rate (Hourly)
-17.8 °C -17.8 °C 0 hPa Calm     Humidity % 0 mm
00:00 -15.3 °C -20.5 °C 34875.8 hPa SE 3.1 km/h   51 % 0 mm
00:05 -15.3 °C -20.5 °C 34875.8 hPa ENE 3.1 km/h   51 % 0 mm
00:10 -15.4 °C -20.5 °C 34875.8 hPa WNW 3.1 km/h 3.1 km/h 51 % 0 mm
00:15 -16.1 °C -20.4 °C 34841.9 hPa WSW 5.1 km/h 5.1 km/h 57 % 0 mm
00:25 -16.2 °C -20.4 °C 34841.9 hPa WSW 2.6 km/h 5.1 km/h 58 % 0 mm
00:35 -16.2 °C -20.2 °C 34841.9 hPa Calm   5.1 km/h 59 % 0 mm
00:45 -16.3 °C -20.2 °C 34841.9 hPa Calm   2.6 km/h 60 % 0 mm
00:55 -16.2 °C -20.1 °C 34841.9 hPa Calm   5.1 km/h 60 % 0 mm
01:05 -16.3 °C -20.2 °C 34875.8 hPa Calm   2.6 km/h 60 % 0 mm
01:15 -16.3 °C -20.2 °C 34875.8 hPa Calm   2.6 km/h 60 % 0 mm
01:25 -16.4 °C -20.3 °C 34875.8 hPa NNW 5.1 km/h 5.1 km/h 60 % 0 mm
01:35 -16.6 °C -20.4 °C 34875.8 hPa WNW 2.6 km/h 5.1 km/h 61 % 0 mm
01:45 -16.6 °C -20.4 °C 34875.8 hPa ENE 2.6 km/h   61 % 0 mm
01:55 -16.7 °C -20.4 °C 34875.8 hPa Calm     61 % 0 mm
02:05 -16.7 °C -20.4 °C 34875.8 hPa Calm   5.1 km/h 61 % 0 mm
02:15 -16.6 °C -20.2 °C 34875.8 hPa Calm   5.1 km/h 62 % 0 mm
02:25 -16.3 °C -19.9 °C 34875.8 hPa Calm   5.1 km/h 62 % 0 mm
02:35 -16.1 °C -19.8 °C 34875.8 hPa NNE 2.6 km/h 5.1 km/h 62 % 0 mm
02:45 -15.8 °C -19.4 °C 34875.8 hPa NE 2.6 km/h   62 % 0 mm
02:55 -15.7 °C -19.5 °C 34875.8 hPa NE 2.6 km/h 7.7 km/h 61 % 0 mm
03:05 -15.4 °C -19.2 °C 34875.8 hPa NE 2.6 km/h 2.6 km/h 61 % 0 mm
03:15 -15 °C -18.9 °C 34875.8 hPa Calm   2.6 km/h 60 % 0 mm
03:25 -14.7 °C -18.8 °C 34875.8 hPa SE 2.6 km/h 2.6 km/h 59 % 0 mm
03:35 -14.9 °C -19.2 °C 34875.8 hPa East 5.1 km/h 5.1 km/h 58 % 0 mm
03:45 -14.9 °C -19.3 °C 34875.8 hPa ENE 5.1 km/h 7.7 km/h 57 % 0 mm
03:55 -14.7 °C -19.1 °C 34899.5 hPa ENE 5.1 km/h 5.1 km/h 57 % 0 mm
04:05 -14.6 °C -18.9 °C 34899.5 hPa NE 2.6 km/h 7.7 km/h 57 % 0 mm
04:15 -14.4 °C -18.9 °C 34899.5 hPa NE 7.7 km/h 10.3 km/h 56 % 0 mm
04:25 -14.3 °C -19 °C 34899.5 hPa NE 7.7 km/h 10.3 km/h 55 % 0 mm
04:35 -13.9 °C -18.4 °C 34899.5 hPa NE 2.6 km/h 5.1 km/h 56 % 0 mm
10:41 -13.8 °C -18.4 °C 34899.5 hPa ENE 6 km/h 6 km/h 55 % 0 mm
10:42 -13.8 °C -18.4 °C 34899.5 hPa ENE 6.3 km/h 6.3 km/h 55 % 0 mm
10:46 -13.7 °C -18.4 °C 34875.8 hPa SW 3.1 km/h 3.1 km/h 55 % 0 mm
10:51 -13.4 °C -18.2 °C 34875.8 hPa ENE 6 km/h 6 km/h 55 % 0 mm
10:56 -13.3 °C -18.2 °C 34875.8 hPa ESE 6 km/h 6 km/h 54 % 0 mm
11:01 -13.3 °C -18.2 °C 34899.5 hPa East 6 km/h 6 km/h 54 % 0 mm
11:06 -13.1 °C -18 °C 34899.5 hPa ESE 6 km/h 6 km/h 54 % 0 mm
11:11 -13 °C -18 °C 34899.5 hPa SW 6 km/h 6 km/h 53 % 0 mm
11:16 -12.8 °C -17.7 °C 34875.8 hPa East 3.1 km/h 3.1 km/h 54 % 0 mm
11:21 -12.8 °C -17.9 °C 34875.8 hPa ENE 6 km/h 6 km/h 53 % 0 mm
11:26 -12.8 °C -17.8 °C 34875.8 hPa SE 3.1 km/h 3.1 km/h 53 % 0 mm
11:31 -12.4 °C -17.5 °C 34875.8 hPa South 3.7 km/h   53 % 0 mm
11:36 -12.4 °C -17.4 °C 34875.8 hPa South 6.3 km/h 6.3 km/h 53 % 0 mm
11:41 -12.4 °C -17.5 °C 34875.8 hPa SSE 3.1 km/h 3.1 km/h 53 % 0 mm
11:46 -12.5 °C -17.6 °C 34875.8 hPa NNE 6 km/h 6 km/h 53 % 0 mm
11:51 -12.5 °C -17.6 °C 34875.8 hPa ESE 6 km/h 6 km/h 53 % 0 mm
11:57 -12.4 °C -17.7 °C 34875.8 hPa South 6 km/h   52 % 0 mm
12:02 -12 °C -17.1 °C 34875.8 hPa South 3.1 km/h   53 % 0 mm
12:07 -12.1 °C -17.2 °C 34875.8 hPa NNW 6 km/h 6 km/h 53 % 0 mm
12:12 -11.8 °C -16.9 °C 34875.8 hPa ENE 3.7 km/h   53 % 0 mm
12:17 -11.9 °C -17.2 °C 34875.8 hPa WNW 6 km/h 6 km/h 52 % 0 mm
12:22 -11.8 °C -17.1 °C 34875.8 hPa East 6 km/h 6 km/h 52 % 0 mm
12:27 -11.9 °C -17.1 °C 34875.8 hPa East 9 km/h 9 km/h 52 % 0 mm
12:32 -11.9 °C -17.1 °C 34875.8 hPa NE 11.9 km/h 11.9 km/h 52 % 0 mm
12:42 -11.8 °C -17.1 °C 34875.8 hPa WSW 6 km/h 6 km/h 52 % 0 mm
12:47 -11.5 °C -16.8 °C 34841.9 hPa ENE 8 km/h 8 km/h 52 % 0 mm
12:52 -11.6 °C -16.8 °C 34841.9 hPa NE 9 km/h 9 km/h 52 % 0 mm
12:57 -11.5 °C -16.8 °C 34841.9 hPa NNW 9 km/h 9 km/h 52 % 0 mm
13:02 -11.3 °C -16.6 °C 34841.9 hPa NW 11.9 km/h 11.9 km/h 52 % 0 mm
13:07 -11 °C -16.3 °C 34841.9 hPa SW 17.9 km/h 17.9 km/h 52 % 0 mm
13:12 -11 °C -16.5 °C 34841.9 hPa WSW 6.8 km/h 6.8 km/h 51 % 0 mm
13:17 -10.8 °C -16.3 °C 34808.1 hPa WSW 10.3 km/h 10.3 km/h 51 % 0 mm
13:22 -10.8 °C -16.3 °C 34808.1 hPa WSW 11.9 km/h 11.9 km/h 51 % 0 mm
13:27 -10.7 °C -16.2 °C 34808.1 hPa WSW 6 km/h 6 km/h 51 % 0 mm
13:32 -10.6 °C -16.1 °C 34808.1 hPa SW 16.1 km/h 16.1 km/h 51 % 0 mm
13:37 -10.7 °C -16.2 °C 34808.1 hPa WSW 12.7 km/h 12.7 km/h 51 % 0 mm
13:42 -10.7 °C -16.3 °C 34808.1 hPa West 6.3 km/h 6.3 km/h 50 % 0 mm
13:47 -10.7 °C -16.3 °C 34808.1 hPa SSW 15.6 km/h 15.6 km/h 50 % 0 mm
13:57 -10.9 °C -16.7 °C 34808.1 hPa SW 11.9 km/h 11.9 km/h 49 % 0 mm
14:02 -11 °C -16.8 °C 34808.1 hPa West 11.9 km/h 11.9 km/h 49 % 0 mm
14:07 -11 °C -16.8 °C 34808.1 hPa SSW 9 km/h 9 km/h 49 % 0 mm
14:08 -11 °C -16.8 °C 34808.1 hPa SW 9 km/h 9 km/h 49 % 0 mm
14:13 -11.1 °C -16.8 °C 34808.1 hPa WSW 10.3 km/h 10.3 km/h 49 % 0 mm
14:18 -11.1 °C -16.8 °C 34808.1 hPa WSW 10.3 km/h 10.3 km/h 49 % 0 mm
14:23 -11.1 °C -16.8 °C 34808.1 hPa WSW 6 km/h 6 km/h 49 % 0 mm
14:28 -10.9 °C -16.7 °C 34808.1 hPa SSW 9 km/h 9 km/h 49 % 0 mm
14:33 -10.9 °C -16.7 °C 34808.1 hPa WSW 9 km/h 9 km/h 49 % 0 mm
14:38 -10.8 °C -16.6 °C 34808.1 hPa WSW 9 km/h 9 km/h 49 % 0 mm
14:43 -10.8 °C -16.6 °C 34808.1 hPa SW 8 km/h 8 km/h 49 % 0 mm
14:53 -10.8 °C -16.6 °C 34808.1 hPa SSW 11.9 km/h 11.9 km/h 49 % 0 mm
14:58 -10.7 °C -16.6 °C 34808.1 hPa SW 3.1 km/h 3.1 km/h 49 % 0 mm
15:03 -10.7 °C -16.6 °C 34774.2 hPa SW 9 km/h 9 km/h 49 % 0 mm
15:13 -10.7 °C -16.6 °C 34774.2 hPa SW 6 km/h 6 km/h 49 % 0 mm
15:18 -10.8 °C -16.6 °C 34774.2 hPa SSW 11.9 km/h 11.9 km/h 49 % 0 mm
15:23 -10.9 °C -16.9 °C 34774.2 hPa SW 6 km/h 6 km/h 48 % 0 mm
15:28 -10.9 °C -16.9 °C 34774.2 hPa SW 6 km/h 6 km/h 48 % 0 mm
15:33 -10.9 °C -16.9 °C 34774.2 hPa SW 6.8 km/h   48 % 0 mm
15:38 -11 °C -16.9 °C 34774.2 hPa SSW 9 km/h 9 km/h 48 % 0 mm
15:43 -11.1 °C -17 °C 34774.2 hPa WSW 9 km/h 9 km/h 48 % 0 mm
15:48 -11.1 °C -17.1 °C 34774.2 hPa SW 9 km/h 9 km/h 48 % 0 mm
15:53 -11.2 °C -17.2 °C 34774.2 hPa SW 9 km/h 9 km/h 48 % 0 mm
15:58 -11.2 °C -17.1 °C 34774.2 hPa WSW 6 km/h 6 km/h 48 % 0 mm
16:03 -11.2 °C -17.2 °C 34774.2 hPa WSW 3.1 km/h   48 % 0 mm
16:08 -11.2 °C -17.2 °C 34774.2 hPa Calm     48 % 0 mm
16:13 -11.3 °C -17.2 °C 34774.2 hPa Calm     48 % 0 mm
16:18 -11.3 °C -17.3 °C 34808.1 hPa Calm     48 % 0 mm
16:23 -11.4 °C -17.3 °C 34808.1 hPa Calm     48 % 0 mm
16:28 -11.5 °C -17.4 °C 34808.1 hPa Calm     48 % 0 mm
16:33 -11.6 °C -17.4 °C 34774.2 hPa Calm     48 % 0 mm
16:38 -11.6 °C -17.5 °C 34774.2 hPa Calm     48 % 0 mm
16:43 -11.6 °C -17.3 °C 34774.2 hPa SW 6 km/h 6 km/h 49 % 0 mm
16:48 -11.6 °C -17.3 °C 34774.2 hPa Calm     49 % 0 mm
16:53 -11.7 °C -17.4 °C 34774.2 hPa WSW 3.7 km/h 3.7 km/h 49 % 0 mm
16:58 -11.8 °C -17.5 °C 34774.2 hPa WSW 3.1 km/h 3.1 km/h 49 % 0 mm
17:03 -11.9 °C -17.6 °C 34740.4 hPa WSW 3.1 km/h   49 % 0 mm
17:08 -12 °C -17.7 °C 34740.4 hPa WSW 3.1 km/h 3.1 km/h 49 % 0 mm
17:13 -12.1 °C -17.7 °C 34740.4 hPa WSW 3.7 km/h 3.7 km/h 49 % 0 mm
17:15 -12.1 °C -17.8 °C 34740.4 hPa WSW 5.1 km/h 5.1 km/h 49 % 0 mm
17:20 -12.2 °C -17.9 °C 34740.4 hPa WSW 6 km/h 6 km/h 49 % 0 mm
17:25 -12.3 °C -17.9 °C 34740.4 hPa WSW 6 km/h 6 km/h 49 % 0 mm
17:30 -12.4 °C -18.1 °C 34740.4 hPa WSW 3.1 km/h 3.1 km/h 49 % 0 mm
17:35 -12.4 °C -18.1 °C 34740.4 hPa WSW 6 km/h 6 km/h 49 % 0 mm
17:40 -12.5 °C -18.2 °C 34740.4 hPa Calm     49 % 0 mm
17:45 -12.6 °C -18.1 °C 34740.4 hPa Calm     50 % 0 mm
17:50 -12.7 °C -18.2 °C 34740.4 hPa Calm     50 % 0 mm
17:55 -12.8 °C -18.3 °C 34740.4 hPa Calm     50 % 0 mm
18:00 -12.8 °C -18.3 °C 34740.4 hPa WSW 3.1 km/h 3.7 km/h 50 % 0 mm
18:05 -12.9 °C -18.4 °C 34740.4 hPa West 7.6 km/h 7.6 km/h 50 % 0 mm
18:10 -12.9 °C -18.4 °C 34740.4 hPa WSW 6.3 km/h 6.3 km/h 50 % 0 mm
18:15 -12.9 °C -18.3 °C 34740.4 hPa WSW 3.1 km/h   51 % 0 mm
18:20 -13 °C -18.3 °C 34740.4 hPa WSW 6 km/h 6 km/h 51 % 0 mm
18:25 -13.1 °C -18.4 °C 34740.4 hPa Calm     51 % 0 mm
18:30 -13.1 °C -18.4 °C 34740.4 hPa WSW 3.1 km/h   51 % 0 mm
18:35 -13.2 °C -18.5 °C 34740.4 hPa WSW 3.1 km/h   51 % 0 mm
18:40 -13.3 °C -18.4 °C 34740.4 hPa Calm     52 % 0 mm
18:45 -13.4 °C -18.6 °C 34740.4 hPa Calm     52 % 0 mm
18:50 -13.4 °C -18.6 °C 34740.4 hPa Calm     52 % 0 mm
18:55 -13.4 °C -18.6 °C 34740.4 hPa SW 3.7 km/h 3.7 km/h 52 % 0 mm
19:00 -13.5 °C -18.5 °C 34740.4 hPa Calm     53 % 0 mm
19:05 -13.6 °C -18.6 °C 34740.4 hPa Calm     53 % 0 mm
19:10 -13.6 °C -18.6 °C 34740.4 hPa WSW 4.2 km/h   53 % 0 mm
19:15 -13.6 °C -18.6 °C 34740.4 hPa Calm     53 % 0 mm
19:20 -13.5 °C -18.5 °C 34740.4 hPa SW 6 km/h 6 km/h 53 % 0 mm
19:25 -13.5 °C -18.4 °C 34740.4 hPa WSW 3.1 km/h   54 % 0 mm
19:30 -13.4 °C -18.3 °C 34740.4 hPa WSW 6 km/h 6 km/h 54 % 0 mm
19:35 -13.5 °C -18.4 °C 34740.4 hPa WSW 6 km/h 6 km/h 54 % 0 mm
19:40 -13.5 °C -18.4 °C 34740.4 hPa WSW 6.8 km/h 6.8 km/h 54 % 0 mm
19:45 -13.5 °C -18.4 °C 34740.4 hPa SW 6.8 km/h 6.8 km/h 54 % 0 mm
19:50 -13.5 °C -18.4 °C 34740.4 hPa SW 6 km/h 6 km/h 54 % 0 mm
19:55 -13.6 °C -18.4 °C 34740.4 hPa SW 6 km/h 6 km/h 54 % 0 mm
20:00 -13.6 °C -18.4 °C 34740.4 hPa SW 9 km/h 9 km/h 54 % 0 mm
20:05 -13.6 °C -18.3 °C 34740.4 hPa SW 3.1 km/h 3.1 km/h 55 % 0 mm
20:10 -13.6 °C -18.3 °C 34740.4 hPa SW 6 km/h 6 km/h 55 % 0 mm
20:15 -13.7 °C -18.4 °C 34740.4 hPa SW 3.1 km/h   55 % 0 mm
20:20 -13.7 °C -18.4 °C 34740.4 hPa SW 3.1 km/h 3.1 km/h 55 % 0 mm
20:25 -13.8 °C -18.3 °C 34740.4 hPa Calm     56 % 0 mm
20:30 -13.8 °C -18.4 °C 34740.4 hPa SW 2.3 km/h   56 % 0 mm
20:35 -13.9 °C -18.4 °C 34740.4 hPa Calm     56 % 0 mm
20:40 -13.9 °C -18.7 °C 34740.4 hPa Calm     55 % 0 mm
20:45 -14 °C -18.7 °C 34740.4 hPa Calm     55 % 0 mm
20:50 -14 °C -18.7 °C 34740.4 hPa Calm     55 % 0 mm
20:55 -14.1 °C -18.7 °C 34740.4 hPa ENE 6 km/h 6 km/h 55 % 0 mm
21:00 -14.2 °C -18.7 °C 34740.4 hPa ENE 3.1 km/h   56 % 0 mm
21:05 -14.3 °C -18.8 °C 34740.4 hPa Calm     56 % 0 mm
21:10 -14.3 °C -18.7 °C 34740.4 hPa Calm     57 % 0 mm
21:15 -14.4 °C -18.8 °C 34703.1 hPa Calm     57 % 0 mm
21:20 -14.4 °C -18.8 °C 34703.1 hPa SW 3.1 km/h   57 % 0 mm
21:25 -14.6 °C -18.9 °C 34703.1 hPa Calm     57 % 0 mm
21:30 -14.6 °C -18.9 °C 34669.3 hPa SE 3.7 km/h   57 % 0 mm
21:35 -14.6 °C -18.8 °C 34669.3 hPa Calm     58 % 0 mm
21:40 -14.7 °C -18.9 °C 34669.3 hPa South 6 km/h   58 % 0 mm
21:45 -14.7 °C -18.9 °C 34669.3 hPa WSW 3.1 km/h 3.1 km/h 58 % 0 mm
21:50 -14.8 °C -19 °C 34669.3 hPa Calm     58 % 0 mm
21:55 -14.8 °C -19.1 °C 34669.3 hPa WSW 3.1 km/h   58 % 0 mm
22:00 -14.9 °C -19.1 °C 34669.3 hPa SW 3.1 km/h 3.1 km/h 58 % 0 mm
22:05 -14.9 °C -19.2 °C 34669.3 hPa Calm     58 % 0 mm
22:10 -14.9 °C -19.2 °C 34669.3 hPa WSW 6 km/h 6 km/h 58 % 0 mm
22:15 -14.9 °C -19.2 °C 34669.3 hPa WSW 3.7 km/h   58 % 0 mm
22:20 -14.9 °C -19.1 °C 34669.3 hPa Calm     59 % 0 mm
22:25 -14.9 °C -18.9 °C 34669.3 hPa Calm     60 % 0 mm
22:30 -14.9 °C -18.9 °C 34669.3 hPa Calm     60 % 0 mm
22:33 -14.9 °C -18.9 °C 34669.3 hPa Calm     60 % 0 mm
22:35 -16.3 °C -19.3 °C 34533.8 hPa NW 2.6 km/h 5.1 km/h 67 % 0 mm
22:38 -14.9 °C -18.9 °C 34669.3 hPa Calm     60 % 0 mm
22:43 -14.9 °C -18.9 °C 34669.3 hPa Calm     60 % 0 mm
22:45 -16.3 °C -19.4 °C 34533.8 hPa Calm   2.6 km/h 67 % 0 mm
22:48 -14.9 °C -18.9 °C 34669.3 hPa NNE 6 km/h 6 km/h 60 % 0 mm
22:53 -15 °C -18.8 °C 34669.3 hPa NNE 3.1 km/h   61 % 0 mm
22:55 -16.3 °C -19.4 °C 34533.8 hPa Calm     67 % 0 mm
22:58 -15 °C -18.8 °C 34669.3 hPa NE 6 km/h 6 km/h 61 % 0 mm
23:03 -15.1 °C -18.9 °C 34669.3 hPa NE 6 km/h 6 km/h 61 % 0 mm
23:05 -16.4 °C -19.4 °C 34533.8 hPa Calm     67 % 0 mm
23:08 -15.1 °C -18.9 °C 34669.3 hPa NE 3.1 km/h   61 % 0 mm
23:13 -15.1 °C -18.9 °C 34669.3 hPa East 6 km/h 6 km/h 61 % 0 mm
23:15 -16.4 °C -19.5 °C 34533.8 hPa NNE 2.6 km/h 2.6 km/h 67 % 0 mm
23:18 -15.1 °C -18.9 °C 34669.3 hPa Calm     61 % 0 mm
23:23 -15.2 °C -19 °C 34669.3 hPa Calm     61 % 0 mm
23:25 -16.4 °C -19.5 °C 34533.8 hPa Calm   2.6 km/h 67 % 0 mm
23:28 -15.2 °C -19.1 °C 34669.3 hPa SW 3.1 km/h 3.1 km/h 61 % 0 mm
23:33 -15.3 °C -19.1 °C 34669.3 hPa SW 3.1 km/h 3.1 km/h 61 % 0 mm
23:35 -16.4 °C -19.5 °C 34496.6 hPa Calm   5.1 km/h 67 % 0 mm
23:38 -15.3 °C -19.2 °C 34669.3 hPa SW 3.1 km/h   61 % 0 mm
23:43 -15.3 °C -19.2 °C 34669.3 hPa SW 6 km/h 6 km/h 61 % 0 mm
23:45 -16.5 °C -19.6 °C 34496.6 hPa Calm   5.1 km/h 67 % 0 mm
23:48 -15.3 °C -19.2 °C 34669.3 hPa SW 3.1 km/h   61 % 0 mm
23:53 -15.4 °C -19.2 °C 34669.3 hPa Calm     61 % 0 mm
23:55 -16.6 °C -19.6 °C 34496.6 hPa WSW 2.6 km/h 5.1 km/h 67 % 0 mm
23:58 -15.4 °C -19.1 °C 34669.3 hPa Calm     62 % 0 mm
Meteo Sesrovires
Elogis d' Weather Underground - 1.5 mb

Guio original per  Jim McMurry - jmcmurry@mwt.net Adaptat per a la plantilla per  Wim van der Kuil - Leuven-Template.eu

Trobareu la nostra informacio del temps tambe a:

Weather Underground

AWEKAS